Fort McCoy, Wisconsin
Current Conditions -  °F | °C
As of 4:15 PM on Monday 26 Jan 2015 (Local Time) from KCMY Reporting Station
Overcast Overcast  
Wind Chill: 26°   Ceiling: 1000
Heat Index: 26°   Visibility: 10mi
Dew Point: 26°   Wind: 0mph
Humidity: 96%   Direction: NA
Pressure: 29.8"   Gusts: NA
Location:  43.9936°N, 90.8051°W
Report Text: KCMY 262215Z AUTO 00000KT 10SM OVC010 M03/M04 A2980 RMK AO2 T10311036
Loading
Personal Weather Stations






























Interactive Weather Map New forecast layout! Learn more

10-Day Weather Forecast

Advertisements
Track Severe Weather on mobile